sensor_id;sensor_type;location;lat;lon;timestamp;P1;durP1;ratioP1;P2;durP2;ratioP2
53401;SDS011;39295;45.534;20.034;2022-08-19T15:27:34;45.30;;;6.57;;
53401;SDS011;39295;45.534;20.034;2022-08-19T15:30:01;46.08;;;6.07;;
53401;SDS011;39295;45.534;20.034;2022-08-19T15:32:27;33.45;;;5.55;;
53401;SDS011;39295;45.534;20.034;2022-08-19T15:34:54;38.88;;;4.93;;
53401;SDS011;39295;45.534;20.034;2022-08-19T15:37:21;49.55;;;6.30;;
53401;SDS011;39295;45.534;20.034;2022-08-19T15:39:48;46.30;;;4.95;;
53401;SDS011;39295;45.534;20.034;2022-08-19T15:42:14;34.35;;;5.93;;
53401;SDS011;39295;45.534;20.034;2022-08-19T15:44:40;30.52;;;4.80;;
53401;SDS011;39295;45.534;20.034;2022-08-19T15:47:06;33.03;;;5.00;;
53401;SDS011;39295;45.534;20.034;2022-08-19T15:49:32;31.63;;;4.82;;
53401;SDS011;39295;45.534;20.034;2022-08-19T15:51:58;32.95;;;4.63;;
53401;SDS011;39295;45.534;20.034;2022-08-19T15:54:25;25.75;;;5.35;;
53401;SDS011;39295;45.534;20.034;2022-08-19T15:56:51;33.20;;;4.93;;
53401;SDS011;39295;45.534;20.034;2022-08-19T15:59:36;44.25;;;4.70;;
53401;SDS011;39295;45.534;20.034;2022-08-19T16:02:22;36.95;;;5.18;;
53401;SDS011;39295;45.534;20.034;2022-08-19T16:05:09;28.80;;;4.45;;
53401;SDS011;39295;45.534;20.034;2022-08-19T16:07:54;24.20;;;3.90;;
53401;SDS011;39295;45.534;20.034;2022-08-19T16:10:20;31.33;;;4.93;;
53401;SDS011;39295;45.534;20.034;2022-08-19T16:12:46;21.30;;;4.20;;
53401;SDS011;39295;45.534;20.034;2022-08-19T16:15:12;20.67;;;4.10;;
53401;SDS011;39295;45.534;20.034;2022-08-19T16:17:39;27.83;;;4.13;;
53401;SDS011;39295;45.534;20.034;2022-08-19T16:20:05;25.33;;;4.63;;
53401;SDS011;39295;45.534;20.034;2022-08-19T16:22:42;26.35;;;5.00;;
53401;SDS011;39295;45.534;20.034;2022-08-19T16:25:08;27.83;;;4.13;;
53401;SDS011;39295;45.534;20.034;2022-08-19T16:27:35;23.92;;;4.88;;
53401;SDS011;39295;45.534;20.034;2022-08-19T16:30:02;22.77;;;4.90;;
53401;SDS011;39295;45.534;20.034;2022-08-19T16:32:28;22.17;;;5.85;;
53401;SDS011;39295;45.534;20.034;2022-08-19T16:34:54;23.30;;;3.92;;
53401;SDS011;39295;45.534;20.034;2022-08-19T16:37:20;25.70;;;4.25;;
53401;SDS011;39295;45.534;20.034;2022-08-19T16:39:47;24.13;;;5.43;;
53401;SDS011;39295;45.534;20.034;2022-08-19T16:42:13;20.77;;;4.03;;
53401;SDS011;39295;45.534;20.034;2022-08-19T16:44:40;17.58;;;4.35;;
53401;SDS011;39295;45.534;20.034;2022-08-19T16:47:06;33.78;;;6.30;;
53401;SDS011;39295;45.534;20.034;2022-08-19T16:49:32;26.30;;;4.38;;
53401;SDS011;39295;45.534;20.034;2022-08-19T16:51:58;29.38;;;4.78;;
53401;SDS011;39295;45.534;20.034;2022-08-19T16:54:26;18.92;;;4.57;;
53401;SDS011;39295;45.534;20.034;2022-08-19T16:56:53;24.73;;;4.22;;
53401;SDS011;39295;45.534;20.034;2022-08-19T16:59:20;23.33;;;4.60;;
53401;SDS011;39295;45.534;20.034;2022-08-19T17:01:48;20.20;;;4.00;;
53401;SDS011;39295;45.534;20.034;2022-08-19T17:04:16;18.92;;;4.75;;
53401;SDS011;39295;45.534;20.034;2022-08-19T17:06:42;23.15;;;4.63;;
53401;SDS011;39295;45.534;20.034;2022-08-19T17:09:08;27.58;;;4.20;;
53401;SDS011;39295;45.534;20.034;2022-08-19T17:11:34;23.42;;;4.57;;
53401;SDS011;39295;45.534;20.034;2022-08-19T17:14:00;24.30;;;4.38;;
53401;SDS011;39295;45.534;20.034;2022-08-19T17:16:28;20.45;;;4.13;;
53401;SDS011;39295;45.534;20.034;2022-08-19T17:18:55;20.13;;;4.38;;
53401;SDS011;39295;45.534;20.034;2022-08-19T17:21:22;24.10;;;4.53;;
53401;SDS011;39295;45.534;20.034;2022-08-19T17:23:49;25.25;;;5.43;;
53401;SDS011;39295;45.534;20.034;2022-08-19T17:26:16;61.67;;;6.65;;
53401;SDS011;39295;45.534;20.034;2022-08-19T17:28:42;158.43;;;15.50;;
53401;SDS011;39295;45.534;20.034;2022-08-19T17:31:09;180.02;;;15.90;;
53401;SDS011;39295;45.534;20.034;2022-08-19T17:33:35;106.80;;;10.10;;
53401;SDS011;39295;45.534;20.034;2022-08-19T17:36:01;80.47;;;9.40;;
53401;SDS011;39295;45.534;20.034;2022-08-19T17:38:28;76.00;;;8.73;;
53401;SDS011;39295;45.534;20.034;2022-08-19T17:40:54;53.85;;;8.45;;
53401;SDS011;39295;45.534;20.034;2022-08-19T17:43:27;28.65;;;5.53;;
53401;SDS011;39295;45.534;20.034;2022-08-19T17:45:53;38.63;;;5.20;;
53401;SDS011;39295;45.534;20.034;2022-08-19T17:48:19;31.20;;;4.90;;
53401;SDS011;39295;45.534;20.034;2022-08-19T17:50:47;26.50;;;6.72;;
53401;SDS011;39295;45.534;20.034;2022-08-19T17:53:15;12.88;;;3.55;;
53401;SDS011;39295;45.534;20.034;2022-08-19T17:55:42;21.65;;;4.25;;
53401;SDS011;39295;45.534;20.034;2022-08-19T17:58:08;11.25;;;3.53;;
53401;SDS011;39295;45.534;20.034;2022-08-19T18:00:34;11.00;;;2.33;;
53401;SDS011;39295;45.534;20.034;2022-08-19T18:03:00;15.55;;;4.13;;
53401;SDS011;39295;45.534;20.034;2022-08-19T18:05:32;21.13;;;4.20;;
53401;SDS011;39295;45.534;20.034;2022-08-19T18:07:58;10.73;;;3.60;;
53401;SDS011;39295;45.534;20.034;2022-08-19T18:10:25;14.02;;;7.80;;
53401;SDS011;39295;45.534;20.034;2022-08-19T18:12:52;14.50;;;4.38;;
53401;SDS011;39295;45.534;20.034;2022-08-19T18:15:19;12.30;;;3.90;;
53401;SDS011;39295;45.534;20.034;2022-08-19T18:17:45;14.68;;;4.88;;
53401;SDS011;39295;45.534;20.034;2022-08-19T18:20:12;24.70;;;5.80;;
53401;SDS011;39295;45.534;20.034;2022-08-19T18:22:40;31.90;;;8.00;;
53401;SDS011;39295;45.534;20.034;2022-08-19T19:05:45;15.60;;;4.25;;
53401;SDS011;39295;45.534;20.034;2022-08-19T19:08:15;10.75;;;3.70;;
53401;SDS011;39295;45.534;20.034;2022-08-19T19:10:41;7.88;;;3.50;;
53401;SDS011;39295;45.534;20.034;2022-08-19T19:13:07;10.82;;;3.75;;
53401;SDS011;39295;45.534;20.034;2022-08-19T19:15:39;13.68;;;4.00;;
53401;SDS011;39295;45.534;20.034;2022-08-19T19:18:10;14.18;;;4.13;;
53401;SDS011;39295;45.534;20.034;2022-08-19T19:20:38;16.10;;;4.53;;
53401;SDS011;39295;45.534;20.034;2022-08-19T19:23:04;13.18;;;4.85;;
53401;SDS011;39295;45.534;20.034;2022-08-19T19:25:30;9.27;;;4.35;;
53401;SDS011;39295;45.534;20.034;2022-08-19T19:28:00;16.05;;;4.18;;
53401;SDS011;39295;45.534;20.034;2022-08-19T19:30:29;10.77;;;4.05;;
53401;SDS011;39295;45.534;20.034;2022-08-19T19:32:56;12.32;;;4.88;;
53401;SDS011;39295;45.534;20.034;2022-08-19T19:35:23;14.18;;;4.72;;
53401;SDS011;39295;45.534;20.034;2022-08-19T19:38:02;12.25;;;4.57;;
53401;SDS011;39295;45.534;20.034;2022-08-19T19:40:31;15.75;;;4.43;;
53401;SDS011;39295;45.534;20.034;2022-08-19T19:43:00;15.85;;;5.63;;
53401;SDS011;39295;45.534;20.034;2022-08-19T19:45:28;19.80;;;4.88;;
53401;SDS011;39295;45.534;20.034;2022-08-19T19:47:54;16.20;;;5.38;;
53401;SDS011;39295;45.534;20.034;2022-08-19T19:50:25;13.50;;;5.35;;
53401;SDS011;39295;45.534;20.034;2022-08-19T19:53:00;11.80;;;4.82;;
53401;SDS011;39295;45.534;20.034;2022-08-19T19:55:26;19.23;;;5.50;;
53401;SDS011;39295;45.534;20.034;2022-08-19T19:57:55;14.98;;;5.63;;
53401;SDS011;39295;45.534;20.034;2022-08-19T20:00:23;11.50;;;4.97;;
53401;SDS011;39295;45.534;20.034;2022-08-19T20:02:52;17.90;;;5.47;;
53401;SDS011;39295;45.534;20.034;2022-08-19T20:05:20;19.15;;;6.03;;
53401;SDS011;39295;45.534;20.034;2022-08-19T20:07:49;38.70;;;26.75;;
53401;SDS011;39295;45.534;20.034;2022-08-19T20:10:34;17.38;;;8.73;;
53401;SDS011;39295;45.534;20.034;2022-08-19T20:13:00;14.15;;;6.32;;
53401;SDS011;39295;45.534;20.034;2022-08-19T20:15:27;18.40;;;5.70;;
53401;SDS011;39295;45.534;20.034;2022-08-19T20:17:53;21.38;;;6.28;;
53401;SDS011;39295;45.534;20.034;2022-08-19T20:20:19;18.30;;;6.18;;
53401;SDS011;39295;45.534;20.034;2022-08-19T20:22:45;21.58;;;5.43;;
53401;SDS011;39295;45.534;20.034;2022-08-19T20:25:13;22.23;;;6.30;;
53401;SDS011;39295;45.534;20.034;2022-08-19T20:27:39;15.50;;;5.57;;
53401;SDS011;39295;45.534;20.034;2022-08-19T20:30:06;18.17;;;6.47;;
53401;SDS011;39295;45.534;20.034;2022-08-19T20:32:33;11.93;;;6.45;;
53401;SDS011;39295;45.534;20.034;2022-08-19T20:34:59;15.07;;;6.30;;
53401;SDS011;39295;45.534;20.034;2022-08-19T20:37:26;17.70;;;6.50;;
53401;SDS011;39295;45.534;20.034;2022-08-19T20:39:52;16.20;;;6.05;;
53401;SDS011;39295;45.534;20.034;2022-08-19T20:42:18;11.95;;;5.45;;
53401;SDS011;39295;45.534;20.034;2022-08-19T20:44:45;17.60;;;5.97;;
53401;SDS011;39295;45.534;20.034;2022-08-19T20:47:11;29.88;;;6.88;;
53401;SDS011;39295;45.534;20.034;2022-08-19T20:49:38;12.82;;;5.63;;
53401;SDS011;39295;45.534;20.034;2022-08-19T20:52:04;17.75;;;5.93;;
53401;SDS011;39295;45.534;20.034;2022-08-19T20:54:31;11.38;;;5.22;;
53401;SDS011;39295;45.534;20.034;2022-08-19T20:56:57;15.52;;;6.00;;
53401;SDS011;39295;45.534;20.034;2022-08-19T20:59:23;19.48;;;6.30;;
53401;SDS011;39295;45.534;20.034;2022-08-19T21:01:51;15.90;;;6.03;;
53401;SDS011;39295;45.534;20.034;2022-08-19T21:04:17;20.55;;;5.45;;
53401;SDS011;39295;45.534;20.034;2022-08-19T21:06:44;13.68;;;6.85;;
53401;SDS011;39295;45.534;20.034;2022-08-19T21:09:10;17.42;;;6.38;;
53401;SDS011;39295;45.534;20.034;2022-08-19T21:11:36;18.45;;;6.38;;
53401;SDS011;39295;45.534;20.034;2022-08-19T21:14:03;20.65;;;6.65;;
53401;SDS011;39295;45.534;20.034;2022-08-19T21:16:29;16.38;;;6.65;;
53401;SDS011;39295;45.534;20.034;2022-08-19T21:18:57;16.25;;;6.57;;
53401;SDS011;39295;45.534;20.034;2022-08-19T21:21:23;20.92;;;7.13;;
53401;SDS011;39295;45.534;20.034;2022-08-19T21:23:49;18.23;;;6.45;;
53401;SDS011;39295;45.534;20.034;2022-08-19T21:26:15;16.10;;;7.20;;
53401;SDS011;39295;45.534;20.034;2022-08-19T21:28:41;18.50;;;6.07;;
53401;SDS011;39295;45.534;20.034;2022-08-19T21:31:07;20.52;;;6.97;;
53401;SDS011;39295;45.534;20.034;2022-08-19T21:33:34;16.33;;;5.85;;
53401;SDS011;39295;45.534;20.034;2022-08-19T21:36:01;19.50;;;5.97;;
53401;SDS011;39295;45.534;20.034;2022-08-19T21:38:27;24.00;;;6.45;;
53401;SDS011;39295;45.534;20.034;2022-08-19T21:40:54;22.13;;;6.75;;
53401;SDS011;39295;45.534;20.034;2022-08-19T21:43:20;17.45;;;5.93;;
53401;SDS011;39295;45.534;20.034;2022-08-19T21:45:46;20.00;;;6.00;;
53401;SDS011;39295;45.534;20.034;2022-08-19T21:48:15;17.75;;;6.85;;
53401;SDS011;39295;45.534;20.034;2022-08-19T21:50:41;15.43;;;6.00;;
53401;SDS011;39295;45.534;20.034;2022-08-19T21:53:08;16.42;;;6.60;;
53401;SDS011;39295;45.534;20.034;2022-08-19T21:55:34;23.35;;;6.93;;
53401;SDS011;39295;45.534;20.034;2022-08-19T21:58:00;22.42;;;7.15;;
53401;SDS011;39295;45.534;20.034;2022-08-19T22:00:27;23.15;;;6.65;;
53401;SDS011;39295;45.534;20.034;2022-08-19T22:02:54;22.05;;;6.72;;
53401;SDS011;39295;45.534;20.034;2022-08-19T22:05:21;17.23;;;6.40;;
53401;SDS011;39295;45.534;20.034;2022-08-19T22:07:52;25.00;;;7.32;;
53401;SDS011;39295;45.534;20.034;2022-08-19T22:10:18;21.25;;;7.30;;
53401;SDS011;39295;45.534;20.034;2022-08-19T22:12:46;23.02;;;7.50;;
53401;SDS011;39295;45.534;20.034;2022-08-19T22:15:13;18.48;;;6.75;;
53401;SDS011;39295;45.534;20.034;2022-08-19T22:17:39;18.83;;;6.90;;
53401;SDS011;39295;45.534;20.034;2022-08-19T22:20:07;21.73;;;6.78;;
53401;SDS011;39295;45.534;20.034;2022-08-19T22:22:35;23.45;;;7.15;;
53401;SDS011;39295;45.534;20.034;2022-08-19T22:25:04;18.20;;;7.68;;
53401;SDS011;39295;45.534;20.034;2022-08-19T22:27:30;23.30;;;7.55;;
53401;SDS011;39295;45.534;20.034;2022-08-19T22:29:56;18.10;;;6.88;;
53401;SDS011;39295;45.534;20.034;2022-08-19T22:32:22;20.63;;;7.25;;
53401;SDS011;39295;45.534;20.034;2022-08-19T22:34:48;18.25;;;6.05;;
53401;SDS011;39295;45.534;20.034;2022-08-19T22:37:14;24.13;;;6.85;;
53401;SDS011;39295;45.534;20.034;2022-08-19T22:39:40;19.52;;;6.68;;
53401;SDS011;39295;45.534;20.034;2022-08-19T22:42:06;18.58;;;6.97;;
53401;SDS011;39295;45.534;20.034;2022-08-19T22:44:33;17.35;;;5.88;;
53401;SDS011;39295;45.534;20.034;2022-08-19T22:46:59;19.25;;;6.28;;
53401;SDS011;39295;45.534;20.034;2022-08-19T22:49:26;15.73;;;5.10;;
53401;SDS011;39295;45.534;20.034;2022-08-19T22:51:52;19.70;;;6.18;;
53401;SDS011;39295;45.534;20.034;2022-08-19T22:54:36;14.57;;;5.50;;
53401;SDS011;39295;45.534;20.034;2022-08-19T22:57:02;16.88;;;6.05;;
53401;SDS011;39295;45.534;20.034;2022-08-19T22:59:29;17.05;;;5.43;;
53401;SDS011;39295;45.534;20.034;2022-08-19T23:01:55;15.85;;;5.38;;
53401;SDS011;39295;45.534;20.034;2022-08-19T23:04:21;17.60;;;5.90;;
53401;SDS011;39295;45.534;20.034;2022-08-19T23:06:47;13.68;;;5.47;;
53401;SDS011;39295;45.534;20.034;2022-08-19T23:09:13;17.63;;;5.35;;
53401;SDS011;39295;45.534;20.034;2022-08-19T23:11:39;18.67;;;6.10;;
53401;SDS011;39295;45.534;20.034;2022-08-19T23:14:05;18.85;;;5.32;;
53401;SDS011;39295;45.534;20.034;2022-08-19T23:16:31;18.50;;;5.95;;
53401;SDS011;39295;45.534;20.034;2022-08-19T23:19:00;18.58;;;8.48;;
53401;SDS011;39295;45.534;20.034;2022-08-19T23:21:26;17.77;;;7.22;;
53401;SDS011;39295;45.534;20.034;2022-08-19T23:23:52;17.73;;;8.85;;
53401;SDS011;39295;45.534;20.034;2022-08-19T23:26:19;17.45;;;7.63;;
53401;SDS011;39295;45.534;20.034;2022-08-19T23:28:45;20.67;;;7.75;;
53401;SDS011;39295;45.534;20.034;2022-08-19T23:31:30;22.63;;;8.77;;
53401;SDS011;39295;45.534;20.034;2022-08-19T23:33:56;24.15;;;9.00;;
53401;SDS011;39295;45.534;20.034;2022-08-19T23:36:23;28.33;;;10.05;;
53401;SDS011;39295;45.534;20.034;2022-08-19T23:38:51;26.52;;;11.77;;
53401;SDS011;39295;45.534;20.034;2022-08-19T23:41:17;37.83;;;16.02;;
53401;SDS011;39295;45.534;20.034;2022-08-19T23:43:44;46.40;;;19.50;;
53401;SDS011;39295;45.534;20.034;2022-08-19T23:46:11;44.55;;;19.20;;
53401;SDS011;39295;45.534;20.034;2022-08-19T23:48:37;32.70;;;15.80;;
53401;SDS011;39295;45.534;20.034;2022-08-19T23:51:05;38.80;;;12.40;;
53401;SDS011;39295;45.534;20.034;2022-08-19T23:53:32;27.00;;;10.05;;
53401;SDS011;39295;45.534;20.034;2022-08-19T23:55:58;18.42;;;7.85;;
53401;SDS011;39295;45.534;20.034;2022-08-19T23:58:24;17.42;;;7.70;;
